createdAt,value
2019-02-08T00:01:33.572Z,1.10
2019-02-08T00:04:14.171Z,1.20
2019-02-08T00:06:54.868Z,1.10
2019-02-08T00:09:35.532Z,1.00
2019-02-08T00:12:16.338Z,1.00
2019-02-08T00:14:57.233Z,1.10
2019-02-08T00:17:38.108Z,1.10
2019-02-08T00:20:18.663Z,1.10
2019-02-08T00:22:59.642Z,1.10
2019-02-08T00:25:40.189Z,1.20
2019-02-08T00:28:28.179Z,1.20
2019-02-08T00:31:16.119Z,1.20
2019-02-08T00:34:05.651Z,1.30
2019-02-08T00:36:53.555Z,1.30
2019-02-08T00:39:41.488Z,1.40
2019-02-08T00:42:29.426Z,1.50
2019-02-08T00:45:36.648Z,1.50
2019-02-08T00:48:24.579Z,1.50
2019-02-08T00:51:12.479Z,1.60
2019-02-08T00:54:00.411Z,1.60
2019-02-08T00:56:48.320Z,1.80
2019-02-08T00:59:36.251Z,1.80
2019-02-08T01:02:24.175Z,1.80
2019-02-08T01:05:33.047Z,1.80
2019-02-08T01:08:20.976Z,1.80
2019-02-08T01:11:08.888Z,1.70
2019-02-08T01:13:56.806Z,1.70
2019-02-08T01:16:46.368Z,1.60
2019-02-08T01:19:34.308Z,1.60
2019-02-08T01:22:22.247Z,1.60
2019-02-08T01:25:02.639Z,1.60
2019-02-08T01:27:43.451Z,1.60
2019-02-08T01:30:24.019Z,1.60
2019-02-08T01:33:05.067Z,1.50
2019-02-08T01:35:45.555Z,1.40
2019-02-08T01:38:26.615Z,1.30
2019-02-08T01:41:07.754Z,1.30
2019-02-08T01:43:48.715Z,1.30
2019-02-08T01:46:29.276Z,1.30
2019-02-08T01:49:09.704Z,1.50
2019-02-08T01:51:50.300Z,1.60
2019-02-08T01:54:30.979Z,1.70
2019-02-08T01:57:11.591Z,1.70
2019-02-08T01:59:52.263Z,1.80
2019-02-08T02:02:32.664Z,2.00
2019-02-08T02:05:13.507Z,2.10
2019-02-08T02:07:54.004Z,2.20
2019-02-08T02:10:34.635Z,2.40
2019-02-08T02:13:15.771Z,2.30
2019-02-08T02:15:56.460Z,2.30
2019-02-08T02:18:37.411Z,2.30
2019-02-08T02:21:18.350Z,2.40
2019-02-08T02:23:59.143Z,2.40
2019-02-08T02:26:39.752Z,2.40
2019-02-08T02:29:20.792Z,2.40
2019-02-08T02:32:01.296Z,2.60
2019-02-08T02:34:42.049Z,2.60
2019-02-08T02:37:22.659Z,2.70
2019-02-08T02:40:03.426Z,2.70
2019-02-08T02:42:43.791Z,2.70
2019-02-08T02:45:24.715Z,2.50
2019-02-08T02:48:05.406Z,2.40
2019-02-08T02:50:45.976Z,2.40
2019-02-08T02:53:26.502Z,2.30
2019-02-08T02:56:07.016Z,2.20
2019-02-08T02:58:47.732Z,2.20
2019-02-08T03:01:28.995Z,2.10
2019-02-08T03:04:09.889Z,2.20
2019-02-08T03:06:50.395Z,2.30
2019-02-08T03:09:30.978Z,2.20
2019-02-08T03:12:11.719Z,2.10
2019-02-08T03:14:52.851Z,2.00
2019-02-08T03:17:33.825Z,1.90
2019-02-08T03:20:14.683Z,1.90
2019-02-08T03:22:55.047Z,1.80
2019-02-08T03:25:35.945Z,1.70
2019-02-08T03:28:16.471Z,1.70
2019-02-08T03:30:57.300Z,1.70
2019-02-08T03:33:38.388Z,1.70
2019-02-08T03:36:18.970Z,1.60
2019-02-08T03:38:59.866Z,1.60
2019-02-08T03:41:40.498Z,1.50
2019-02-08T03:44:21.353Z,1.50
2019-02-08T03:47:02.072Z,1.60
2019-02-08T03:49:42.683Z,1.70
2019-02-08T03:52:23.308Z,1.70
2019-02-08T03:55:04.254Z,1.70
2019-02-08T03:57:44.664Z,1.70
2019-02-08T04:00:30.167Z,1.60
2019-02-08T04:03:11.332Z,1.60
2019-02-08T04:05:52.053Z,1.40
2019-02-08T04:08:32.895Z,1.40
2019-02-08T04:11:13.435Z,1.40
2019-02-08T04:13:54.250Z,1.30
2019-02-08T04:16:34.804Z,1.30
2019-02-08T04:19:15.855Z,1.30
2019-02-08T04:21:56.553Z,1.30
2019-02-08T04:24:37.296Z,1.30
2019-02-08T04:27:17.979Z,1.30
2019-02-08T04:29:58.443Z,1.30
2019-02-08T04:32:38.835Z,1.30
2019-02-08T04:35:19.256Z,1.40
2019-02-08T04:37:59.879Z,1.30
2019-02-08T04:40:40.841Z,1.40
2019-02-08T04:43:22.108Z,1.60
2019-02-08T04:46:02.763Z,1.60
2019-02-08T04:48:43.184Z,1.60
2019-02-08T04:51:23.706Z,1.60
2019-02-08T04:54:04.427Z,1.60
2019-02-08T04:56:44.855Z,1.50
2019-02-08T04:59:25.797Z,1.60
2019-02-08T05:02:06.974Z,1.60
2019-02-08T05:04:48.119Z,1.70
2019-02-08T05:07:28.888Z,1.80
2019-02-08T05:10:09.821Z,1.70
2019-02-08T05:12:50.703Z,1.80
2019-02-08T05:15:31.395Z,1.60
2019-02-08T05:18:12.143Z,1.60
2019-02-08T05:20:52.736Z,1.50
2019-02-08T05:23:33.151Z,1.50
2019-02-08T05:26:14.242Z,1.40
2019-02-08T05:28:54.880Z,1.30
2019-02-08T05:31:35.399Z,1.30
2019-02-08T05:34:15.763Z,1.10
2019-02-08T05:36:56.160Z,1.00
2019-02-08T05:39:37.466Z,0.90
2019-02-08T05:42:18.398Z,0.90
2019-02-08T05:44:59.080Z,1.00
2019-02-08T05:47:40.364Z,1.00
2019-02-08T05:50:21.123Z,1.10
2019-02-08T05:53:01.569Z,1.10
2019-02-08T05:55:42.523Z,1.10
2019-02-08T05:58:22.879Z,1.20
2019-02-08T06:01:03.622Z,1.10
2019-02-08T06:03:44.272Z,0.90
2019-02-08T06:06:25.092Z,1.00
2019-02-08T06:09:05.621Z,1.10
2019-02-08T06:11:46.384Z,1.20
2019-02-08T06:14:27.192Z,1.20
2019-02-08T06:17:08.219Z,1.20
2019-02-08T06:19:48.731Z,1.30
2019-02-08T06:22:29.369Z,1.20
2019-02-08T06:25:10.174Z,1.20
2019-02-08T06:27:50.854Z,1.40
2019-02-08T06:30:31.610Z,1.60
2019-02-08T06:33:12.022Z,1.60
2019-02-08T06:35:53.011Z,1.60
2019-02-08T06:38:33.724Z,1.70
2019-02-08T06:41:14.894Z,1.70
2019-02-08T06:43:55.747Z,1.70
2019-02-08T06:46:36.645Z,1.80
2019-02-08T06:49:17.094Z,1.80
2019-02-08T06:51:58.011Z,1.90
2019-02-08T06:54:38.886Z,2.20
2019-02-08T06:57:20.936Z,2.40
2019-02-08T07:00:03.471Z,2.60
2019-02-08T07:02:43.903Z,2.70
2019-02-08T07:08:49.624Z,2.80
2019-02-08T07:11:56.739Z,2.70
2019-02-08T07:15:03.834Z,2.80
2019-02-08T07:21:05.905Z,3.10
2019-02-08T07:24:13.000Z,3.20
2019-02-08T07:26:55.890Z,3.20
2019-02-08T07:32:45.881Z,3.30
2019-02-08T07:35:46.096Z,3.40
2019-02-08T07:38:31.067Z,3.30
2019-02-08T07:41:31.104Z,3.40
2019-02-08T07:44:15.491Z,3.50
2019-02-08T07:47:22.611Z,3.70
2019-02-08T07:50:31.255Z,3.70
2019-02-08T07:53:38.355Z,3.70
2019-02-08T07:59:41.880Z,3.60
2019-02-08T08:02:49.000Z,3.60
2019-02-08T08:05:56.679Z,3.60
2019-02-08T08:09:03.844Z,3.70
2019-02-08T08:12:11.031Z,3.80
2019-02-08T08:21:25.657Z,4.00
2019-02-08T08:24:34.284Z,3.90
2019-02-08T08:27:41.564Z,3.90
2019-02-08T08:33:57.685Z,4.10
2019-02-08T08:37:04.936Z,4.20
2019-02-08T08:40:12.168Z,4.20
2019-02-08T08:43:19.416Z,4.30
2019-02-08T08:46:26.669Z,4.30
2019-02-08T08:49:33.895Z,4.20
2019-02-08T08:52:42.551Z,4.30
2019-02-08T08:55:49.782Z,4.40
2019-02-08T08:58:58.440Z,4.40
2019-02-08T09:02:05.688Z,4.50
2019-02-08T09:05:12.924Z,4.50
2019-02-08T09:08:21.572Z,4.40
2019-02-08T09:11:30.215Z,4.30
2019-02-08T09:14:37.444Z,4.40
2019-02-08T09:17:44.693Z,4.30
2019-02-08T09:20:52.040Z,4.40
2019-02-08T09:23:59.291Z,4.40
2019-02-08T09:26:40.289Z,4.60
2019-02-08T09:29:20.831Z,4.40
2019-02-08T09:32:03.144Z,4.30
2019-02-08T09:34:44.016Z,4.30
2019-02-08T09:37:24.808Z,4.30
2019-02-08T09:40:05.463Z,4.30
2019-02-08T09:42:46.440Z,4.40
2019-02-08T09:45:27.211Z,4.40
2019-02-08T09:48:08.056Z,4.40
2019-02-08T09:50:48.591Z,4.40
2019-02-08T09:53:29.397Z,4.40
2019-02-08T09:56:09.933Z,4.40
2019-02-08T09:58:50.715Z,4.50
2019-02-08T10:01:31.660Z,4.50
2019-02-08T10:04:12.087Z,4.50
2019-02-08T10:06:52.714Z,4.50
2019-02-08T10:09:33.451Z,4.60
2019-02-08T10:12:13.867Z,4.60
2019-02-08T10:14:54.938Z,4.60
2019-02-08T10:17:36.279Z,4.60
2019-02-08T10:20:16.759Z,4.60
2019-02-08T10:22:57.166Z,4.60
2019-02-08T10:25:37.653Z,4.70
2019-02-08T10:28:18.695Z,4.60
2019-02-08T10:30:59.530Z,4.60
2019-02-08T10:33:40.391Z,4.70
2019-02-08T10:36:21.215Z,4.70
2019-02-08T10:39:02.195Z,4.80
2019-02-08T10:41:43.464Z,4.80
2019-02-08T10:44:24.284Z,5.00
2019-02-08T10:47:04.893Z,5.10
2019-02-08T10:49:45.401Z,5.40
2019-02-08T10:52:26.200Z,5.60
2019-02-08T10:55:06.531Z,5.70
2019-02-08T10:57:47.502Z,5.50
2019-02-08T11:03:55.922Z,5.60
2019-02-08T11:07:03.173Z,5.80
2019-02-08T11:10:10.400Z,5.70
2019-02-08T11:13:19.052Z,5.80
2019-02-08T11:16:26.284Z,5.70
2019-02-08T11:19:33.560Z,5.70
2019-02-08T11:22:21.455Z,5.60
2019-02-08T11:25:02.572Z,5.70
2019-02-08T11:27:43.760Z,5.80
2019-02-08T11:30:24.527Z,5.70
2019-02-08T11:33:05.572Z,5.50
2019-02-08T11:35:46.311Z,5.40
2019-02-08T11:38:27.052Z,5.30
2019-02-08T11:41:07.347Z,5.30
2019-02-08T11:43:48.068Z,5.40
2019-02-08T11:46:29.326Z,5.30
2019-02-08T11:49:10.307Z,5.40
2019-02-08T11:51:50.807Z,5.40
2019-02-08T11:54:31.512Z,5.60
2019-02-08T11:57:12.497Z,5.60
2019-02-08T11:59:53.222Z,5.40
2019-02-08T12:02:40.217Z,5.20
2019-02-08T12:05:15.675Z,4.90
2019-02-08T12:07:56.096Z,5.00
2019-02-08T12:10:36.527Z,5.00
2019-02-08T12:13:17.194Z,5.00
2019-02-08T12:15:58.356Z,5.20
2019-02-08T12:18:39.172Z,5.10
2019-02-08T12:21:20.111Z,5.10
2019-02-08T12:24:00.760Z,5.10
2019-02-08T12:26:41.568Z,5.10
2019-02-08T12:29:22.471Z,5.10
2019-02-08T12:32:02.956Z,5.10
2019-02-08T12:34:43.779Z,5.10
2019-02-08T12:37:24.647Z,5.10
2019-02-08T12:40:05.207Z,5.10
2019-02-08T12:42:45.655Z,5.10
2019-02-08T12:45:26.164Z,5.00
2019-02-08T12:48:08.069Z,5.10
2019-02-08T12:50:49.223Z,5.20
2019-02-08T12:53:30.263Z,5.10
2019-02-08T12:56:10.955Z,5.10
2019-02-08T12:58:51.568Z,5.10
2019-02-08T13:01:37.557Z,5.20
2019-02-08T13:04:15.220Z,5.20
2019-02-08T13:06:56.099Z,5.20
2019-02-08T13:09:36.817Z,5.20
2019-02-08T13:12:17.172Z,5.20
2019-02-08T13:14:58.239Z,5.20
2019-02-08T13:17:38.884Z,5.20
2019-02-08T13:20:20.225Z,5.10
2019-02-08T13:23:00.871Z,5.20
2019-02-08T13:25:41.463Z,5.10
2019-02-08T13:28:22.211Z,5.20
2019-02-08T13:31:03.490Z,5.20
2019-02-08T13:33:44.300Z,5.20
2019-02-08T13:36:25.051Z,5.30
2019-02-08T13:39:05.712Z,5.30
2019-02-08T13:41:46.635Z,5.30
2019-02-08T13:44:27.636Z,5.40
2019-02-08T13:47:08.247Z,5.30
2019-02-08T13:49:49.223Z,5.30
2019-02-08T13:52:29.830Z,5.30
2019-02-08T13:55:10.308Z,5.30
2019-02-08T13:57:49.158Z,5.20
2019-02-08T14:00:57.813Z,5.20
2019-02-08T14:03:45.732Z,5.20
2019-02-08T14:06:33.655Z,5.30
2019-02-08T14:09:21.647Z,5.30
2019-02-08T14:12:09.559Z,5.40
2019-02-08T14:14:57.479Z,5.40
2019-02-08T14:17:45.651Z,5.40
2019-02-08T14:20:33.645Z,5.40
2019-02-08T14:23:21.567Z,5.50
2019-02-08T14:26:02.576Z,5.50
2019-02-08T14:28:43.419Z,5.70
2019-02-08T14:31:24.233Z,5.50
2019-02-08T14:34:05.211Z,5.60
2019-02-08T14:36:45.881Z,5.50
2019-02-08T14:39:26.730Z,5.50
2019-02-08T14:42:07.367Z,5.40
2019-02-08T14:44:48.367Z,5.30
2019-02-08T14:47:28.992Z,5.30
2019-02-08T14:50:09.708Z,5.30
2019-02-08T14:52:50.342Z,5.30
2019-02-08T14:55:33.633Z,5.20
2019-02-08T14:58:14.791Z,5.20
2019-02-08T15:00:55.633Z,5.30
2019-02-08T15:03:36.416Z,5.30
2019-02-08T15:06:17.551Z,5.30
2019-02-08T15:08:58.159Z,5.30
2019-02-08T15:11:39.119Z,5.20
2019-02-08T15:14:19.431Z,5.20
2019-02-08T15:17:00.332Z,5.30
2019-02-08T15:19:41.547Z,5.20
2019-02-08T15:22:22.172Z,5.20
2019-02-08T15:25:02.871Z,5.10
2019-02-08T15:27:44.103Z,4.90
2019-02-08T15:30:25.091Z,5.00
2019-02-08T15:33:05.538Z,5.00
2019-02-08T15:35:46.084Z,4.90
2019-02-08T15:38:26.882Z,4.80
2019-02-08T15:41:07.768Z,4.70
2019-02-08T15:43:48.456Z,4.70
2019-02-08T15:46:29.111Z,4.50
2019-02-08T15:49:09.688Z,4.50
2019-02-08T15:51:50.320Z,4.50
2019-02-08T15:54:31.158Z,4.40
2019-02-08T15:57:11.715Z,4.20
2019-02-08T15:59:52.723Z,4.10
2019-02-08T16:02:33.566Z,3.90
2019-02-08T16:05:14.346Z,3.80
2019-02-08T16:07:55.036Z,3.60
2019-02-08T16:10:35.995Z,3.60
2019-02-08T16:13:16.707Z,3.70
2019-02-08T16:15:57.623Z,3.60
2019-02-08T16:18:38.088Z,3.70
2019-02-08T16:21:18.983Z,3.70
2019-02-08T16:23:59.774Z,3.60
2019-02-08T16:26:40.743Z,3.50
2019-02-08T16:29:21.695Z,3.50
2019-02-08T16:32:02.523Z,3.50
2019-02-08T16:34:43.031Z,3.50
2019-02-08T16:37:23.645Z,3.40
2019-02-08T16:40:04.613Z,3.40
2019-02-08T16:42:45.452Z,3.50
2019-02-08T16:45:26.199Z,3.30
2019-02-08T16:48:06.819Z,3.50
2019-02-08T16:50:47.664Z,3.50
2019-02-08T16:53:28.339Z,3.30
2019-02-08T16:56:09.282Z,3.40
2019-02-08T16:58:50.124Z,3.40
2019-02-08T17:01:30.827Z,3.40
2019-02-08T17:04:12.100Z,3.30
2019-02-08T17:06:53.061Z,3.30
2019-02-08T17:09:33.397Z,3.30
2019-02-08T17:12:13.916Z,3.30
2019-02-08T17:14:54.517Z,3.30
2019-02-08T17:17:34.982Z,3.30
2019-02-08T17:20:15.592Z,3.40
2019-02-08T17:22:56.367Z,3.30
2019-02-08T17:25:36.991Z,3.20
2019-02-08T17:28:17.415Z,3.10
2019-02-08T17:30:58.371Z,3.20
2019-02-08T17:33:38.960Z,3.10
2019-02-08T17:36:19.454Z,3.20
2019-02-08T17:38:59.794Z,3.40
2019-02-08T17:41:40.742Z,3.50
2019-02-08T17:44:21.659Z,3.30
2019-02-08T17:47:02.525Z,3.40
2019-02-08T17:49:43.272Z,3.40
2019-02-08T17:52:24.077Z,3.50
2019-02-08T17:55:04.538Z,3.60
2019-02-08T17:57:45.292Z,3.60
2019-02-08T18:00:27.671Z,3.60
2019-02-08T18:03:08.807Z,3.50
2019-02-08T18:05:49.798Z,3.50
2019-02-08T18:08:30.387Z,3.50
2019-02-08T18:11:11.303Z,3.60
2019-02-08T18:13:52.188Z,3.60
2019-02-08T18:16:33.095Z,3.70
2019-02-08T18:19:13.776Z,3.70
2019-02-08T18:21:54.688Z,3.70
2019-02-08T18:24:35.127Z,3.70
2019-02-08T18:27:16.190Z,3.60
2019-02-08T18:29:56.739Z,3.40
2019-02-08T18:32:37.311Z,3.40
2019-02-08T18:35:17.895Z,3.50
2019-02-08T18:37:58.687Z,3.40
2019-02-08T18:40:39.155Z,3.40
2019-02-08T18:43:19.906Z,3.40
2019-02-08T18:46:00.743Z,3.40
2019-02-08T18:48:41.586Z,3.40
2019-02-08T18:51:22.105Z,3.30
2019-02-08T18:54:03.370Z,3.30
2019-02-08T18:56:44.398Z,3.30
2019-02-08T18:59:25.052Z,3.30
2019-02-08T19:02:05.949Z,3.40
2019-02-08T19:04:46.368Z,3.50
2019-02-08T19:07:27.183Z,3.40
2019-02-08T19:10:07.847Z,3.30
2019-02-08T19:12:48.450Z,3.20
2019-02-08T19:15:29.580Z,3.10
2019-02-08T19:18:10.499Z,3.00
2019-02-08T19:20:51.111Z,2.90
2019-02-08T19:23:31.559Z,2.80
2019-02-08T19:26:12.151Z,2.70
2019-02-08T19:28:52.774Z,2.60
2019-02-08T19:31:33.683Z,2.50
2019-02-08T19:34:14.283Z,2.50
2019-02-08T19:36:54.964Z,2.40
2019-02-08T19:39:35.935Z,2.50
2019-02-08T19:42:16.651Z,2.50
2019-02-08T19:44:57.162Z,2.40
2019-02-08T19:47:37.716Z,2.30
2019-02-08T19:50:18.400Z,2.20
2019-02-08T19:52:59.207Z,2.10
2019-02-08T19:55:39.878Z,2.00
2019-02-08T19:58:20.541Z,2.00
2019-02-08T20:01:00.865Z,2.00
2019-02-08T20:03:41.632Z,2.00
2019-02-08T20:06:22.227Z,2.00
2019-02-08T20:09:03.268Z,2.10
2019-02-08T20:11:43.837Z,2.10
2019-02-08T20:14:24.568Z,2.30
2019-02-08T20:17:05.436Z,2.40
2019-02-08T20:19:46.184Z,2.40
2019-02-08T20:22:26.811Z,2.40
2019-02-08T20:25:07.230Z,2.50
2019-02-08T20:27:48.716Z,2.70
2019-02-08T20:30:29.624Z,2.90
2019-02-08T20:33:12.881Z,3.00
2019-02-08T20:35:54.181Z,3.00
2019-02-08T20:38:34.740Z,2.90
2019-02-08T20:41:17.048Z,3.10
2019-02-08T20:43:57.928Z,3.10
2019-02-08T20:46:38.670Z,3.30
2019-02-08T20:49:19.096Z,3.30
2019-02-08T20:51:59.460Z,3.20
2019-02-08T20:54:39.871Z,3.20
2019-02-08T20:57:20.338Z,3.40
2019-02-08T21:00:00.912Z,3.30
2019-02-08T21:02:42.092Z,3.30
2019-02-08T21:05:22.642Z,3.30
2019-02-08T21:08:03.179Z,3.40
2019-02-08T21:10:43.939Z,3.60
2019-02-08T21:13:24.333Z,3.70
2019-02-08T21:16:05.041Z,3.80
2019-02-08T21:18:45.687Z,3.80
2019-02-08T21:21:26.026Z,3.90
2019-02-08T21:24:06.680Z,4.00
2019-02-08T21:26:47.455Z,4.00
2019-02-08T21:29:28.112Z,4.10
2019-02-08T21:32:09.030Z,4.10
2019-02-08T21:34:49.954Z,4.10
2019-02-08T21:37:30.864Z,4.00
2019-02-08T21:40:11.400Z,3.90
2019-02-08T21:42:52.234Z,3.80
2019-02-08T21:45:32.912Z,3.60
2019-02-08T21:48:13.749Z,3.60
2019-02-08T21:50:54.180Z,3.50
2019-02-08T21:53:34.938Z,3.50
2019-02-08T21:56:15.383Z,3.40
2019-02-08T21:58:56.057Z,3.40
2019-02-08T22:01:36.696Z,3.40
2019-02-08T22:04:17.295Z,3.30
2019-02-08T22:06:58.039Z,3.20
2019-02-08T22:09:38.703Z,3.10
2019-02-08T22:12:19.237Z,3.00
2019-02-08T22:14:59.872Z,3.20
2019-02-08T22:17:40.611Z,3.40
2019-02-08T22:20:21.256Z,3.50
2019-02-08T22:23:02.162Z,3.50
2019-02-08T22:25:42.851Z,3.60
2019-02-08T22:28:23.743Z,3.80
2019-02-08T22:31:04.296Z,3.70
2019-02-08T22:33:45.095Z,3.90
2019-02-08T22:36:25.730Z,3.90
2019-02-08T22:39:06.148Z,3.90
2019-02-08T22:41:46.921Z,3.90
2019-02-08T22:44:27.467Z,3.90
2019-02-08T22:47:08.163Z,3.80
2019-02-08T22:49:48.952Z,3.80
2019-02-08T22:52:29.631Z,3.70
2019-02-08T22:55:10.392Z,3.80
2019-02-08T22:57:51.083Z,3.80
2019-02-08T23:00:32.067Z,3.90
2019-02-08T23:03:13.004Z,3.70
2019-02-08T23:05:54.148Z,3.80
2019-02-08T23:08:34.712Z,3.80
2019-02-08T23:11:15.163Z,3.90
2019-02-08T23:13:56.066Z,3.90
2019-02-08T23:16:36.780Z,4.00
2019-02-08T23:19:17.615Z,4.20
2019-02-08T23:21:57.924Z,4.30
2019-02-08T23:24:38.507Z,4.30
2019-02-08T23:27:19.075Z,4.30
2019-02-08T23:30:00.016Z,4.30
2019-02-08T23:32:40.407Z,4.40
2019-02-08T23:35:21.209Z,4.50
2019-02-08T23:38:02.291Z,4.60
2019-02-08T23:40:42.887Z,4.60
2019-02-08T23:43:23.451Z,4.30
2019-02-08T23:46:03.914Z,4.20
2019-02-08T23:48:44.666Z,4.00
2019-02-08T23:51:25.106Z,4.00
2019-02-08T23:54:05.943Z,4.40
2019-02-08T23:56:46.564Z,4.30
2019-02-08T23:59:27.384Z,4.30
